< < Back
Terminal Aerodrome Forecast


Current Version              Previous Versions:   1  2  3  4  5  6  7  8  9  

Terminal Aerodrome Forecast

009
FTUS42 KTAE 271127
TAFVLD
TAF
KVLD 271127Z 2712/2812 20003KT 6SM BR OVC003
      TEMPO 2712/2714 5SM -DZ BR OVC008
     FM271400 29010G15KT P6SM OVC010
     FM271700 32012G20KT P6SM OVC015
     FM272200 33010G18KT P6SM SCT025
     FM280000 31009KT P6SM SKC
     FM280300 27003KT P6SM SKC=

Latest METAR

184
SAUS70 KWBC 272200 RRD
MTRVLD
METAR KVLD 272153Z VRB05KT 10SM CLR 17/09 A2982 RMK AO2 SLP105
T01670089


USA.gov is the U.S. government's official web portal to all federal, state and local government web resources and services.